Southgate, MI (48195)

7:52 PM EDT on August 31, 2015 (GMT -0400)
Burns and Eureka | | Change Station
CLOSE
Current Station
Personal Weather Station
Location: Southgate, MI
Elevation: 587 ft
Nearby Weather Stations

Elev 587 ft 42.20 °N, 83.19 °W | Updated 2 seconds ago

Partly Cloudy
Partly Cloudy
81.3 °F
Feels Like 85 °F
N
1.3
Wind Variable Wind from SSW
Gusts 2.5 mph

Today
High -- | Low -- °F
--% Chance of Precip.
Yesterday
High -- | Low -- °F
Precip. -- in
6:56 AM 8:08 PM
Waning Gibbous, 93% visible
Pressure 30.03 in
Visibility 9.0 miles
Clouds Few 3500 ft
Heat Index 85 °F
Dew Point 71 °F
Humidity 70%
Rainfall 0.00 in
Snow Depth Not available.
UV 0.0 out of 12
Pollen 7.60 out of 12
Air Quality Not available.
Flu Activity Not available.
METAR KDTW 312253Z 29003KT 9SM FEW035 28/19 A3004 RMK AO2 SLP168 T02830194
Pressure 30.03 in
Visibility 9.0 miles
Clouds Few 3500 ft
Heat Index 85 °F
Dew Point 71 °F
Humidity 70%
Rainfall 0.00 in
Snow Depth Not available.
UV 0.0 out of 12
Pollen 7.60 out of 12
Air Quality Not available.
Flu Activity Not available.
METAR KDTW 312253Z 29003KT 9SM FEW035 28/19 A3004 RMK AO2 SLP168 T02830194

10-Day Weather Forecast

×

Almanac

Astronomy

Aug. 31, 2015 Rise Set
Actual Time
Civil Twilight
Nautical Twilight
Astronomical Twilight
Moon
Length of Visible Light
Length of Day
Tomorrow will be .
, % of the Moon is Illuminated

Today's Extremes

State Highs State Lows

Community

WunderPhotos

Upload Photos

1,851,395 photos uploaded!

WunderBlogs® & News

Nearby

Air Quality

  Air Quality AQ Index Pollutant
Not available.

Snow Depth

Station Depth Elevation

Earthquake Activity

City Distance Mag. Time & Date
Minimum magnitude displayed is 2.5.

Coastal Water Temperatures

Place Temperature

Stations

Nearby Weather Stations

Station Location Temp. Windchill Dew Point Humidity Wind Precip. Elev Updated Type